ダブリン の空港の天気 - METARとTAF

ダブリン空港 ( EIDW / DUB ) - アイルランド ダブリン
飛行場実況気象(Metar)
観測時間06/24 10:30 GMT (06/24 09:30 UTC)
風向・風速北 3m/s
視程7000m
天気現象
全天の4割程度の雲 雲底高度 90m
全天の8割程度の雲 雲底高度 150m
気温15℃
湿度94%
気圧1016hPa
METAREIDW 240930Z 36006KT 190V170 7000 SCT003 BKN005 15/14 Q1016 BECMG 9999 NSW FEW015
過去の天気等 Google飛行場航空写真 Wunderground天気予報

過去48時間のMETAR

飛行場予報(TAF)
発表時間: 6/24 06:00 GMT (6/24 05:00 UTC)
予報対象時間: 24日7時 GMT ~ 25日7時 GMT
風向・風速北東 4m/s
視程2500m
天気現象もや
全天の8割程度の雲 雲底高度 30m
全天の8割程度の雲 雲底高度 90m
24日7時 GMT ~ 24日9時 GMT に一時的に
視程4000m
天気現象もや
全天の4割程度の雲 雲底高度 30m
全天の8割程度の雲 雲底高度 150m
24日9時 GMT ~ 24日11時 GMT に徐々に
視程10km以上
天気現象運行に影響にある天気現象が終了
少しの雲 雲底高度 460m
全天の8割程度の雲 雲底高度 910m
24日12時 GMT ~ 24日15時 GMT に一時的に
視程4000m
天気現象しゅう雨
全天の8割程度の雲 雲底高度 300m
全天の4割程度の積乱雲 雲底高度 610m
24日12時 GMT ~ 24日14時 GMT に 確率 30% で一時的に
視程2500m
天気現象雷雨
全天の8割程度の積乱雲 雲底高度 430m
24日15時 GMT ~ 24日21時 GMT に一時的に
天気現象弱いしゅう雨
全天の4割程度の積乱雲 雲底高度 610m
24日22時 GMT ~ 25日5時 GMT に 確率 30% で一時的に
視程2500m
天気現象もや
全天の8割程度の雲 雲底高度 60m
TAF EIDW 240500Z 2406/2506 05007KT 2500 BR BKN001 BKN003
TEMPO 2406/2408 4000 BR SCT001 BKN005
BECMG 2408/2410 9999 NSW FEW015 BKN030
TEMPO 2411/2414 4000 SHRA BKN010 SCT020CB
PROB30 TEMPO 2411/2413 2500 TSRA BKN014CB
TEMPO 2414/2420 -SHRA SCT020CB
PROB30 TEMPO 2421/2504 2500 BR BKN002